AAL408 KBOS-KLGA
Flight info
| Callsign | AAL408 |
|---|---|
| Flight time | 0h 44m |
| Altitude | 16000 |
| Route | PATSS7 PATSS NELIE VADDR1 |
| Aircraft | B38M/M-SDE1FGHILORVWXY/HB1 |
Departure
| Time | 2026-05-03 20:53 |
|---|---|
| Airport | Boston Logan International Airport (KBOS) |
Arrival
| Time | 2026-05-03 21:37 |
|---|---|
| Airport | LaGuardia Airport (KLGA) |
| Time | Latitude | Longitude | Altitude | Speed | Heading |
|---|---|---|---|---|---|
| 2026-05-03 20:30 | 42.36035 | -71.01911 | 28 ft | 0 kts | 30° |
| 2026-05-03 20:41 | 42.36027 | -71.01917 | 28 ft | 4 kts | 31° |
| 2026-05-03 20:41 | 42.36005 | -71.01931 | 28 ft | 4 kts | 357° |
| 2026-05-03 20:41 | 42.35988 | -71.01923 | 28 ft | 4 kts | 339° |
| 2026-05-03 20:41 | 42.35971 | -71.01923 | 28 ft | 4 kts | 58° |
| 2026-05-03 20:42 | 42.35974 | -71.01944 | 28 ft | 4 kts | 121° |
| 2026-05-03 20:42 | 42.35981 | -71.01960 | 28 ft | 0 kts | 121° |
| 2026-05-03 20:45 | 42.35980 | -71.01958 | 28 ft | 1 kts | 119° |
| 2026-05-03 20:46 | 42.35969 | -71.01934 | 28 ft | 5 kts | 121° |
| 2026-05-03 20:46 | 42.35942 | -71.01869 | 28 ft | 10 kts | 119° |
| 2026-05-03 20:46 | 42.35913 | -71.01769 | 28 ft | 13 kts | 100° |
| 2026-05-03 20:46 | 42.35893 | -71.01641 | 28 ft | 15 kts | 100° |
| 2026-05-03 20:47 | 42.35874 | -71.01489 | 28 ft | 18 kts | 101° |
| 2026-05-03 20:47 | 42.35852 | -71.01322 | 28 ft | 15 kts | 97° |
| 2026-05-03 20:47 | 42.35875 | -71.01206 | 28 ft | 14 kts | 28° |
| 2026-05-03 20:47 | 42.35974 | -71.01157 | 28 ft | 16 kts | 19° |
| 2026-05-03 20:48 | 42.36086 | -71.01102 | 28 ft | 18 kts | 19° |
| 2026-05-03 20:48 | 42.36180 | -71.01057 | 28 ft | 8 kts | 20° |
| 2026-05-03 20:48 | 42.36209 | -71.01000 | 28 ft | 9 kts | 105° |
| 2026-05-03 20:48 | 42.36178 | -71.00901 | 28 ft | 14 kts | 114° |
| 2026-05-03 20:49 | 42.36127 | -71.00744 | 29 ft | 23 kts | 109° |
| 2026-05-03 20:49 | 42.36073 | -71.00533 | 28 ft | 21 kts | 109° |
| 2026-05-03 20:49 | 42.36033 | -71.00373 | 28 ft | 19 kts | 109° |
| 2026-05-03 20:49 | 42.35987 | -71.00194 | 28 ft | 21 kts | 109° |
| 2026-05-03 20:50 | 42.35951 | -71.00046 | 28 ft | 10 kts | 100° |
| 2026-05-03 20:50 | 42.35949 | -71.00017 | 28 ft | 0 kts | 92° |
| 2026-05-03 20:50 | 42.35949 | -71.00014 | 28 ft | 1 kts | 89° |
| 2026-05-03 20:50 | 42.35952 | -70.99977 | 28 ft | 8 kts | 80° |
| 2026-05-03 20:51 | 42.35972 | -70.99857 | 28 ft | 19 kts | 77° |
| 2026-05-03 20:51 | 42.36010 | -70.99641 | 28 ft | 27 kts | 77° |
| 2026-05-03 20:51 | 42.36050 | -70.99418 | 28 ft | 22 kts | 77° |
| 2026-05-03 20:51 | 42.36088 | -70.99204 | 28 ft | 24 kts | 77° |
| 2026-05-03 20:52 | 42.36126 | -70.98996 | 28 ft | 23 kts | 77° |
| 2026-05-03 20:52 | 42.36114 | -70.98855 | 28 ft | 16 kts | 143° |
| 2026-05-03 20:52 | 42.36020 | -70.98831 | 28 ft | 9 kts | 210° |
| 2026-05-03 20:52 | 42.36001 | -70.98907 | 28 ft | 14 kts | 256° |
| 2026-05-03 20:53 | 42.35917 | -70.99378 | 28 ft | 94 kts | 257° |
| 2026-05-03 20:53 | 42.35701 | -71.00572 | 40 ft | 163 kts | 258° |
| 2026-05-03 20:53 | 42.35419 | -71.02157 | 719 ft | 177 kts | 264° |
| 2026-05-03 20:53 | 42.35087 | -71.03845 | 1674 ft | 196 kts | 251° |
| 2026-05-03 20:54 | 42.34122 | -71.05313 | 2603 ft | 228 kts | 221° |
| 2026-05-03 20:54 | 42.31458 | -71.08171 | 4529 ft | 259 kts | 226° |
| 2026-05-03 20:54 | 42.30097 | -71.09774 | 5793 ft | 261 kts | 227° |
| 2026-05-03 20:55 | 42.28728 | -71.11430 | 6900 ft | 268 kts | 227° |
| 2026-05-03 20:55 | 42.27522 | -71.13310 | 8042 ft | 262 kts | 247° |
| 2026-05-03 20:55 | 42.26764 | -71.15545 | 9155 ft | 266 kts | 250° |
| 2026-05-03 20:55 | 42.25997 | -71.17855 | 10161 ft | 272 kts | 251° |
| 2026-05-03 20:56 | 42.25214 | -71.20256 | 10904 ft | 288 kts | 251° |
| 2026-05-03 20:56 | 42.24387 | -71.22821 | 11466 ft | 308 kts | 251° |
| 2026-05-03 20:56 | 42.23515 | -71.25542 | 12128 ft | 322 kts | 251° |
| 2026-05-03 20:56 | 42.22614 | -71.28362 | 12878 ft | 332 kts | 251° |
| 2026-05-03 20:57 | 42.21698 | -71.31236 | 13821 ft | 336 kts | 251° |
| 2026-05-03 20:57 | 42.20780 | -71.34114 | 14620 ft | 341 kts | 251° |
| 2026-05-03 20:57 | 42.19838 | -71.37066 | 15437 ft | 345 kts | 251° |
| 2026-05-03 20:57 | 42.18877 | -71.40073 | 15865 ft | 351 kts | 251° |
| 2026-05-03 20:58 | 42.17909 | -71.43101 | 15973 ft | 356 kts | 251° |
| 2026-05-03 20:58 | 42.16904 | -71.46240 | 15969 ft | 373 kts | 251° |
| 2026-05-03 20:58 | 42.15859 | -71.49498 | 15983 ft | 382 kts | 251° |
| 2026-05-03 20:58 | 42.14796 | -71.52812 | 15999 ft | 387 kts | 251° |
| 2026-05-03 20:59 | 42.13726 | -71.56140 | 16017 ft | 388 kts | 251° |
| 2026-05-03 20:59 | 42.12651 | -71.59480 | 16014 ft | 388 kts | 251° |
| 2026-05-03 20:59 | 42.11583 | -71.62796 | 16020 ft | 388 kts | 251° |
| 2026-05-03 20:59 | 42.10507 | -71.66132 | 16028 ft | 388 kts | 251° |
| 2026-05-03 21:00 | 42.09434 | -71.69459 | 16032 ft | 388 kts | 251° |
| 2026-05-03 21:00 | 42.08850 | -71.71712 | 16018 ft | 382 kts | 261° |
| 2026-05-03 21:00 | 42.08141 | -71.76397 | 16031 ft | 382 kts | 262° |
| 2026-05-03 21:00 | 42.07615 | -71.79901 | 16032 ft | 382 kts | 262° |
| 2026-05-03 21:01 | 42.07094 | -71.83398 | 16039 ft | 382 kts | 262° |
| 2026-05-03 21:01 | 42.06574 | -71.86897 | 16041 ft | 382 kts | 262° |
| 2026-05-03 21:01 | 42.06053 | -71.90399 | 16048 ft | 382 kts | 262° |
| 2026-05-03 21:01 | 42.05534 | -71.93891 | 16040 ft | 382 kts | 262° |
| 2026-05-03 21:02 | 42.05012 | -71.97388 | 16047 ft | 382 kts | 262° |
| 2026-05-03 21:02 | 42.04488 | -72.00892 | 16057 ft | 382 kts | 262° |
| 2026-05-03 21:02 | 42.03963 | -72.04398 | 16060 ft | 382 kts | 262° |
| 2026-05-03 21:02 | 42.03437 | -72.07903 | 16062 ft | 382 kts | 262° |
| 2026-05-03 21:03 | 42.02911 | -72.11403 | 16061 ft | 382 kts | 262° |
| 2026-05-03 21:03 | 42.02382 | -72.14910 | 16064 ft | 382 kts | 262° |
| 2026-05-03 21:03 | 42.01853 | -72.18405 | 16061 ft | 382 kts | 262° |
| 2026-05-03 21:03 | 42.01324 | -72.21903 | 16058 ft | 382 kts | 262° |
| 2026-05-03 21:04 | 42.00793 | -72.25399 | 16065 ft | 381 kts | 262° |
| 2026-05-03 21:04 | 42.00270 | -72.28834 | 16063 ft | 381 kts | 262° |
| 2026-05-03 21:04 | 41.99740 | -72.32316 | 16071 ft | 381 kts | 262° |
| 2026-05-03 21:04 | 41.99207 | -72.35805 | 16070 ft | 381 kts | 262° |
| 2026-05-03 21:05 | 41.98673 | -72.39291 | 16073 ft | 381 kts | 262° |
| 2026-05-03 21:05 | 41.98139 | -72.42775 | 16079 ft | 381 kts | 262° |
| 2026-05-03 21:05 | 41.97603 | -72.46261 | 16084 ft | 381 kts | 262° |
| 2026-05-03 21:05 | 41.97066 | -72.49744 | 16081 ft | 381 kts | 262° |
| 2026-05-03 21:06 | 41.96528 | -72.53228 | 16082 ft | 381 kts | 262° |
| 2026-05-03 21:06 | 41.95989 | -72.56712 | 16086 ft | 381 kts | 262° |
| 2026-05-03 21:06 | 41.95452 | -72.60181 | 16082 ft | 381 kts | 262° |
| 2026-05-03 21:06 | 41.94910 | -72.63669 | 16077 ft | 382 kts | 262° |
| 2026-05-03 21:07 | 41.94360 | -72.67157 | 16082 ft | 383 kts | 260° |
| 2026-05-03 21:07 | 41.93327 | -72.70479 | 16085 ft | 390 kts | 245° |
| 2026-05-03 21:07 | 41.92005 | -72.73653 | 16054 ft | 391 kts | 245° |
| 2026-05-03 21:07 | 41.90673 | -72.76822 | 15770 ft | 389 kts | 245° |
| 2026-05-03 21:08 | 41.89335 | -72.79969 | 15512 ft | 387 kts | 245° |
| 2026-05-03 21:08 | 41.87994 | -72.83101 | 15276 ft | 386 kts | 245° |
| 2026-05-03 21:08 | 41.86659 | -72.86212 | 15030 ft | 385 kts | 244° |
| 2026-05-03 21:08 | 41.85323 | -72.89317 | 14780 ft | 384 kts | 244° |
| 2026-05-03 21:09 | 41.83993 | -72.92404 | 14553 ft | 382 kts | 244° |
| 2026-05-03 21:09 | 41.82667 | -72.95481 | 14301 ft | 381 kts | 245° |
| 2026-05-03 21:09 | 41.81340 | -72.98555 | 14142 ft | 381 kts | 245° |
| 2026-05-03 21:09 | 41.80012 | -73.01629 | 14105 ft | 381 kts | 245° |
| 2026-05-03 21:10 | 41.78681 | -73.04706 | 14106 ft | 381 kts | 245° |
| 2026-05-03 21:10 | 41.77344 | -73.07796 | 14319 ft | 385 kts | 244° |
| 2026-05-03 21:10 | 41.75993 | -73.10912 | 14339 ft | 388 kts | 244° |
| 2026-05-03 21:10 | 41.74632 | -73.14048 | 14164 ft | 391 kts | 244° |
| 2026-05-03 21:11 | 41.73264 | -73.17198 | 14136 ft | 391 kts | 244° |
| 2026-05-03 21:11 | 41.71912 | -73.20308 | 14135 ft | 386 kts | 244° |
| 2026-05-03 21:11 | 41.70577 | -73.23409 | 14131 ft | 382 kts | 247° |
| 2026-05-03 21:11 | 41.69578 | -73.26671 | 14072 ft | 378 kts | 253° |
| 2026-05-03 21:12 | 41.68608 | -73.29941 | 14036 ft | 379 kts | 253° |
| 2026-05-03 21:12 | 41.67617 | -73.33206 | 14033 ft | 378 kts | 252° |
| 2026-05-03 21:12 | 41.66614 | -73.36462 | 14035 ft | 378 kts | 252° |
| 2026-05-03 21:12 | 41.65608 | -73.39706 | 14010 ft | 378 kts | 252° |
| 2026-05-03 21:13 | 41.64611 | -73.42903 | 14041 ft | 372 kts | 252° |
| 2026-05-03 21:13 | 41.63625 | -73.46056 | 13970 ft | 355 kts | 252° |
| 2026-05-03 21:13 | 41.62679 | -73.49081 | 13550 ft | 350 kts | 252° |
| 2026-05-03 21:13 | 41.61747 | -73.52058 | 13033 ft | 347 kts | 252° |
| 2026-05-03 21:14 | 41.60831 | -73.54977 | 12577 ft | 343 kts | 252° |
| 2026-05-03 21:14 | 41.59912 | -73.57904 | 12107 ft | 340 kts | 252° |
| 2026-05-03 21:14 | 41.58990 | -73.60839 | 11666 ft | 337 kts | 252° |
| 2026-05-03 21:14 | 41.58023 | -73.63608 | 11399 ft | 332 kts | 242° |
| 2026-05-03 21:15 | 41.56615 | -73.66076 | 11219 ft | 324 kts | 237° |
| 2026-05-03 21:15 | 41.55266 | -73.68382 | 11067 ft | 314 kts | 237° |
| 2026-05-03 21:15 | 41.53943 | -73.70632 | 10929 ft | 303 kts | 237° |
| 2026-05-03 21:15 | 41.52657 | -73.72807 | 10790 ft | 294 kts | 237° |
| 2026-05-03 21:16 | 41.51411 | -73.74913 | 10629 ft | 285 kts | 237° |
| 2026-05-03 21:16 | 41.50205 | -73.76947 | 10480 ft | 274 kts | 237° |
| 2026-05-03 21:16 | 41.49029 | -73.78928 | 10379 ft | 274 kts | 237° |
| 2026-05-03 21:16 | 41.47837 | -73.80936 | 10265 ft | 278 kts | 237° |
| 2026-05-03 21:17 | 41.46634 | -73.82963 | 10122 ft | 279 kts | 237° |
| 2026-05-03 21:17 | 41.45810 | -73.84321 | 9994 ft | 280 kts | 233° |
| 2026-05-03 21:17 | 41.43575 | -73.86107 | 9543 ft | 296 kts | 197° |
| 2026-05-03 21:17 | 41.41495 | -73.86042 | 9177 ft | 305 kts | 167° |
| 2026-05-03 21:18 | 41.39606 | -73.84755 | 8886 ft | 307 kts | 146° |
| 2026-05-03 21:18 | 41.37865 | -73.83107 | 8606 ft | 308 kts | 146° |
| 2026-05-03 21:18 | 41.36106 | -73.81473 | 8271 ft | 309 kts | 147° |
| 2026-05-03 21:18 | 41.34339 | -73.79850 | 7991 ft | 306 kts | 147° |
| 2026-05-03 21:19 | 41.32594 | -73.78258 | 7970 ft | 304 kts | 147° |
| 2026-05-03 21:19 | 41.30845 | -73.76670 | 7991 ft | 305 kts | 147° |
| 2026-05-03 21:19 | 41.29092 | -73.75076 | 7998 ft | 305 kts | 148° |
| 2026-05-03 21:19 | 41.27334 | -73.73490 | 7998 ft | 305 kts | 148° |
| 2026-05-03 21:20 | 41.25580 | -73.71905 | 7985 ft | 305 kts | 148° |
| 2026-05-03 21:20 | 41.23833 | -73.70329 | 7992 ft | 305 kts | 148° |
| 2026-05-03 21:20 | 41.22075 | -73.68745 | 7992 ft | 305 kts | 148° |
| 2026-05-03 21:20 | 41.20329 | -73.67171 | 7745 ft | 304 kts | 148° |
| 2026-05-03 21:21 | 41.18584 | -73.65598 | 7450 ft | 302 kts | 148° |
| 2026-05-03 21:21 | 41.16868 | -73.64054 | 7102 ft | 302 kts | 148° |
| 2026-05-03 21:21 | 41.15118 | -73.62477 | 6797 ft | 300 kts | 148° |
| 2026-05-03 21:21 | 41.13378 | -73.61041 | 6443 ft | 297 kts | 160° |
| 2026-05-03 21:22 | 41.11409 | -73.60516 | 6167 ft | 283 kts | 187° |
| 2026-05-03 21:22 | 41.09495 | -73.60871 | 5992 ft | 274 kts | 197° |
| 2026-05-03 21:22 | 41.07607 | -73.61376 | 6028 ft | 279 kts | 197° |
| 2026-05-03 21:22 | 41.05698 | -73.61887 | 5990 ft | 280 kts | 197° |
| 2026-05-03 21:23 | 41.03788 | -73.62399 | 5995 ft | 281 kts | 197° |
| 2026-05-03 21:23 | 41.01874 | -73.62914 | 5944 ft | 278 kts | 197° |
| 2026-05-03 21:23 | 40.99980 | -73.63424 | 5593 ft | 279 kts | 197° |
| 2026-05-03 21:23 | 40.98088 | -73.63931 | 5292 ft | 277 kts | 197° |
| 2026-05-03 21:24 | 40.96207 | -73.64438 | 5005 ft | 275 kts | 197° |
| 2026-05-03 21:24 | 40.94334 | -73.64951 | 4678 ft | 274 kts | 197° |
| 2026-05-03 21:24 | 40.92475 | -73.65467 | 4376 ft | 272 kts | 197° |
| 2026-05-03 21:24 | 40.90624 | -73.65979 | 4056 ft | 271 kts | 197° |
| 2026-05-03 21:25 | 40.88780 | -73.66482 | 3988 ft | 272 kts | 197° |
| 2026-05-03 21:25 | 40.87553 | -73.66823 | 4006 ft | 272 kts | 197° |
| 2026-05-03 21:25 | 40.85696 | -73.67330 | 4003 ft | 272 kts | 197° |
| 2026-05-03 21:25 | 40.83841 | -73.67836 | 4010 ft | 272 kts | 197° |
| 2026-05-03 21:26 | 40.81983 | -73.68342 | 4020 ft | 273 kts | 197° |
| 2026-05-03 21:26 | 40.80246 | -73.69178 | 3986 ft | 260 kts | 220° |
| 2026-05-03 21:26 | 40.79051 | -73.70841 | 4027 ft | 249 kts | 243° |
| 2026-05-03 21:26 | 40.78217 | -73.72831 | 4028 ft | 248 kts | 247° |
| 2026-05-03 21:27 | 40.77412 | -73.74840 | 4007 ft | 249 kts | 247° |
| 2026-05-03 21:27 | 40.76616 | -73.76838 | 3999 ft | 248 kts | 247° |
| 2026-05-03 21:27 | 40.75814 | -73.78859 | 3997 ft | 249 kts | 247° |
| 2026-05-03 21:27 | 40.75006 | -73.80880 | 4009 ft | 249 kts | 247° |
| 2026-05-03 21:28 | 40.74323 | -73.82946 | 3987 ft | 243 kts | 260° |
| 2026-05-03 21:28 | 40.74051 | -73.85122 | 4011 ft | 241 kts | 267° |
| 2026-05-03 21:28 | 40.73860 | -73.87324 | 4000 ft | 241 kts | 267° |
| 2026-05-03 21:28 | 40.73674 | -73.89520 | 3999 ft | 241 kts | 267° |
| 2026-05-03 21:29 | 40.73491 | -73.91708 | 3985 ft | 240 kts | 267° |
| 2026-05-03 21:29 | 40.73307 | -73.93904 | 4020 ft | 242 kts | 267° |
| 2026-05-03 21:29 | 40.73122 | -73.96109 | 4032 ft | 242 kts | 267° |
| 2026-05-03 21:29 | 40.72885 | -73.98302 | 4011 ft | 241 kts | 257° |
| 2026-05-03 21:30 | 40.72042 | -74.00222 | 3755 ft | 251 kts | 230° |
| 2026-05-03 21:30 | 40.70554 | -74.01477 | 3495 ft | 258 kts | 209° |
| 2026-05-03 21:30 | 40.68895 | -74.02391 | 3187 ft | 258 kts | 207° |
| 2026-05-03 21:30 | 40.67239 | -74.03262 | 3044 ft | 251 kts | 207° |
| 2026-05-03 21:31 | 40.65663 | -74.04072 | 3037 ft | 237 kts | 207° |
| 2026-05-03 21:31 | 40.64068 | -74.04462 | 2987 ft | 235 kts | 180° |
| 2026-05-03 21:31 | 40.62547 | -74.03722 | 2991 ft | 240 kts | 145° |
| 2026-05-03 21:31 | 40.61511 | -74.02044 | 3035 ft | 240 kts | 112° |
| 2026-05-03 21:32 | 40.61254 | -73.99915 | 3004 ft | 235 kts | 77° |
| 2026-05-03 21:32 | 40.61852 | -73.97994 | 3006 ft | 223 kts | 43° |
| 2026-05-03 21:32 | 40.63063 | -73.96881 | 3039 ft | 207 kts | 9° |
| 2026-05-03 21:32 | 40.64416 | -73.96805 | 3104 ft | 189 kts | 348° |
| 2026-05-03 21:33 | 40.65728 | -73.96835 | 2774 ft | 195 kts | 4° |
| 2026-05-03 21:33 | 40.66979 | -73.96137 | 2595 ft | 191 kts | 21° |
| 2026-05-03 21:33 | 40.68099 | -73.95309 | 2575 ft | 184 kts | 22° |
| 2026-05-03 21:33 | 40.69146 | -73.94489 | 2556 ft | 171 kts | 24° |
| 2026-05-03 21:34 | 40.70071 | -73.93459 | 2454 ft | 173 kts | 37° |
| 2026-05-03 21:34 | 40.70897 | -73.92349 | 2302 ft | 164 kts | 37° |
| 2026-05-03 21:34 | 40.71624 | -73.91246 | 2258 ft | 161 kts | 55° |
| 2026-05-03 21:34 | 40.72011 | -73.89867 | 2108 ft | 164 kts | 64° |
| 2026-05-03 21:35 | 40.72329 | -73.88421 | 1803 ft | 165 kts | 69° |
| 2026-05-03 21:35 | 40.72597 | -73.86946 | 1514 ft | 164 kts | 70° |
| 2026-05-03 21:35 | 40.72865 | -73.85490 | 1231 ft | 161 kts | 64° |
| 2026-05-03 21:35 | 40.73411 | -73.84267 | 976 ft | 152 kts | 40° |
| 2026-05-03 21:36 | 40.74217 | -73.83500 | 707 ft | 135 kts | 2° |
| 2026-05-03 21:36 | 40.75080 | -73.83659 | 459 ft | 123 kts | 325° |
| 2026-05-03 21:36 | 40.75838 | -73.84149 | 385 ft | 123 kts | 334° |
| 2026-05-03 21:36 | 40.76610 | -73.84618 | 249 ft | 119 kts | 314° |
| 2026-05-03 21:37 | 40.77098 | -73.85473 | 88 ft | 118 kts | 301° |
| 2026-05-03 21:37 | 40.77519 | -73.86369 | 18 ft | 100 kts | 303° |
| 2026-05-03 21:37 | 40.77771 | -73.86892 | 17 ft | 51 kts | 303° |
| 2026-05-03 21:37 | 40.77901 | -73.87166 | 17 ft | 18 kts | 301° |
| 2026-05-03 21:38 | 40.77900 | -73.87318 | 16 ft | 10 kts | 249° |
| 2026-05-03 21:38 | 40.77851 | -73.87392 | 16 ft | 13 kts | 208° |
| 2026-05-03 21:38 | 40.77777 | -73.87382 | 17 ft | 9 kts | 126° |
| 2026-05-03 21:38 | 40.77772 | -73.87294 | 17 ft | 11 kts | 99° |
| 2026-05-03 21:39 | 40.77736 | -73.87190 | 18 ft | 14 kts | 122° |
| 2026-05-03 21:39 | 40.77679 | -73.87071 | 18 ft | 14 kts | 122° |
| 2026-05-03 21:39 | 40.77635 | -73.86996 | 17 ft | 8 kts | 154° |
| 2026-05-03 21:39 | 40.77599 | -73.87004 | 20 ft | 3 kts | 210° |
| 2026-05-03 21:40 | 40.77587 | -73.87014 | 23 ft | 3 kts | 212° |
| 2026-05-03 21:40 | 40.77550 | -73.87044 | 25 ft | 9 kts | 211° |
| 2026-05-03 21:40 | 40.77495 | -73.87088 | 22 ft | 8 kts | 212° |
| 2026-05-03 21:40 | 40.77476 | -73.87114 | 23 ft | 2 kts | 269° |
| 2026-05-03 21:41 | 40.77489 | -73.87132 | 24 ft | 4 kts | 322° |
| 2026-05-03 21:41 | 40.77507 | -73.87149 | 24 ft | 0 kts | 326° |
| 2026-05-03 21:41 | 40.77510 | -73.87151 | 23 ft | 0 kts | 326° |